createdAt,value
2022-09-03T00:00:02.342Z,65.13
2022-09-03T00:01:02.332Z,65.47
2022-09-03T00:02:02.376Z,66.92
2022-09-03T00:03:02.395Z,66.96
2022-09-03T00:04:02.318Z,67.33
2022-09-03T00:05:02.306Z,67.02
2022-09-03T00:06:02.311Z,66.08
2022-09-03T00:07:02.304Z,66.08
2022-09-03T00:08:02.319Z,66.21
2022-09-03T00:09:02.282Z,66.28
2022-09-03T00:10:02.276Z,66.61
2022-09-03T00:11:02.276Z,67.33
2022-09-03T00:12:02.273Z,66.96
2022-09-03T00:13:02.268Z,67.87
2022-09-03T00:14:02.253Z,68.31
2022-09-03T00:15:02.244Z,69.76
2022-09-03T00:16:02.316Z,69.97
2022-09-03T00:17:02.227Z,70.78
2022-09-03T00:18:02.235Z,70.72
2022-09-03T00:19:02.217Z,70.21
2022-09-03T00:20:02.214Z,68.57
2022-09-03T00:21:02.192Z,69.29
2022-09-03T00:22:02.192Z,69.56
2022-09-03T00:23:02.190Z,70.41
2022-09-03T00:24:02.180Z,70.65
2022-09-03T00:25:02.171Z,71.15
2022-09-03T00:26:02.158Z,71.36
2022-09-03T00:27:02.157Z,71.26
2022-09-03T00:28:02.162Z,70.65
2022-09-03T00:29:02.162Z,70.34
2022-09-03T00:30:02.134Z,69.09
2022-09-03T00:31:02.211Z,68.98
2022-09-03T00:32:02.117Z,69.19
2022-09-03T00:33:02.129Z,68.85
2022-09-03T00:34:02.117Z,70.21
2022-09-03T00:35:02.099Z,70.54
2022-09-03T00:36:02.090Z,71.46
2022-09-03T00:37:02.093Z,72.28
2022-09-03T00:38:02.094Z,73.23
2022-09-03T00:39:02.056Z,73.27
2022-09-03T00:40:02.122Z,73.30
2022-09-03T00:41:02.058Z,74.63
2022-09-03T00:42:02.038Z,74.73
2022-09-03T00:43:02.091Z,74.73
2022-09-03T00:44:02.027Z,74.59
2022-09-03T00:45:02.023Z,74.79
2022-09-03T00:46:02.109Z,74.90
2022-09-03T00:47:03.015Z,75.00
2022-09-03T00:48:02.023Z,75.44
2022-09-03T00:49:01.990Z,77.25
2022-09-03T00:50:02.021Z,77.45
2022-09-03T00:51:01.973Z,77.25
2022-09-03T00:52:01.977Z,73.44
2022-09-03T00:53:02.000Z,72.96
2022-09-03T00:54:01.961Z,71.97
2022-09-03T00:55:01.962Z,70.75
2022-09-03T00:56:01.952Z,71.15
2022-09-03T00:57:01.961Z,70.75
2022-09-03T00:58:01.974Z,71.36
2022-09-03T00:59:01.938Z,72.72
2022-09-03T01:00:01.915Z,73.16
2022-09-03T01:01:01.908Z,73.30
2022-09-03T01:02:01.976Z,73.19
2022-09-03T01:03:01.921Z,73.81
2022-09-03T01:04:01.884Z,74.01
2022-09-03T01:05:01.880Z,73.60
2022-09-03T01:06:02.146Z,73.23
2022-09-03T01:07:01.871Z,73.40
2022-09-03T01:08:01.888Z,72.86
2022-09-03T01:09:01.856Z,71.29
2022-09-03T01:10:01.857Z,71.15
2022-09-03T01:11:01.897Z,71.26
2022-09-03T01:12:01.834Z,72.52
2022-09-03T01:13:01.837Z,72.52
2022-09-03T01:14:01.834Z,72.92
2022-09-03T01:15:01.835Z,72.41
2022-09-03T01:16:01.880Z,72.92
2022-09-03T01:17:01.812Z,73.13
2022-09-03T01:18:01.816Z,72.65
2022-09-03T01:19:01.777Z,72.65
2022-09-03T01:20:01.799Z,72.14
2022-09-03T01:21:01.778Z,72.96
2022-09-03T01:22:01.765Z,73.47
2022-09-03T01:23:01.789Z,73.81
2022-09-03T01:24:01.742Z,74.52
2022-09-03T01:25:01.758Z,74.11
2022-09-03T01:26:01.763Z,74.46
2022-09-03T01:27:01.735Z,74.63
2022-09-03T01:28:01.742Z,74.66
2022-09-03T01:29:01.713Z,75.17
2022-09-03T01:30:01.717Z,73.71
2022-09-03T01:31:01.765Z,73.06
2022-09-03T01:32:01.695Z,72.96
2022-09-03T01:33:01.724Z,73.27
2022-09-03T01:34:01.695Z,74.22
2022-09-03T01:35:01.706Z,73.91
2022-09-03T01:36:01.709Z,75.04
2022-09-03T01:37:01.688Z,75.78
2022-09-03T01:38:01.676Z,75.17
2022-09-03T01:39:01.648Z,75.07
2022-09-03T01:40:01.731Z,75.27
2022-09-03T01:41:01.647Z,75.27
2022-09-03T01:42:01.640Z,75.27
2022-09-03T01:43:01.637Z,77.01
2022-09-03T01:44:01.612Z,77.76
2022-09-03T01:45:01.610Z,78.38
2022-09-03T01:46:01.671Z,77.66
2022-09-03T01:47:01.596Z,77.04
2022-09-03T01:48:01.673Z,77.76
2022-09-03T01:49:01.604Z,76.40
2022-09-03T01:50:01.590Z,76.81
2022-09-03T01:51:01.575Z,76.40
2022-09-03T01:52:01.579Z,76.40
2022-09-03T01:53:01.569Z,76.70
2022-09-03T01:54:01.552Z,76.43
2022-09-03T01:55:01.566Z,76.50
2022-09-03T01:56:01.544Z,77.25
2022-09-03T01:57:01.517Z,76.43
2022-09-03T01:58:01.548Z,76.94
2022-09-03T01:59:01.517Z,76.94
2022-09-03T02:00:01.523Z,76.29
2022-09-03T02:01:01.497Z,76.19
2022-09-03T02:02:02.582Z,76.43
2022-09-03T02:03:01.536Z,77.35
2022-09-03T02:04:01.483Z,76.74
2022-09-03T02:05:01.480Z,76.09
2022-09-03T02:06:01.464Z,75.27
2022-09-03T02:07:01.462Z,74.76
2022-09-03T02:08:01.576Z,74.42
2022-09-03T02:09:01.435Z,73.40
2022-09-03T02:10:01.440Z,73.30
2022-09-03T02:11:01.437Z,72.65
2022-09-03T02:12:01.435Z,71.63
2022-09-03T02:13:01.450Z,70.89
2022-09-03T02:14:01.407Z,71.50
2022-09-03T02:15:01.398Z,71.19
2022-09-03T02:16:01.460Z,72.31
2022-09-03T02:17:01.397Z,72.92
2022-09-03T02:18:01.408Z,71.80
2022-09-03T02:19:01.397Z,71.50
2022-09-03T02:20:01.370Z,71.91
2022-09-03T02:21:01.366Z,73.16
2022-09-03T02:22:01.356Z,73.36
2022-09-03T02:23:01.375Z,74.01
2022-09-03T02:24:01.362Z,74.52
2022-09-03T02:25:01.346Z,74.93
2022-09-03T02:26:01.335Z,75.37
2022-09-03T02:27:01.335Z,75.48
2022-09-03T02:28:01.354Z,75.37
2022-09-03T02:29:01.311Z,75.37
2022-09-03T02:30:01.315Z,75.48
2022-09-03T02:31:01.367Z,76.40
2022-09-03T02:32:01.293Z,76.64
2022-09-03T02:33:01.323Z,76.74
2022-09-03T02:34:01.278Z,75.00
2022-09-03T02:35:01.265Z,74.87
2022-09-03T02:36:01.262Z,74.66
2022-09-03T02:37:01.265Z,74.35
2022-09-03T02:38:01.263Z,75.07
2022-09-03T02:39:01.232Z,75.17
2022-09-03T02:40:02.330Z,75.41
2022-09-03T02:41:01.232Z,76.23
2022-09-03T02:42:01.221Z,75.92
2022-09-03T02:43:01.238Z,75.31
2022-09-03T02:44:01.205Z,75.48
2022-09-03T02:45:01.193Z,75.27
2022-09-03T02:46:01.230Z,74.87
2022-09-03T02:47:01.184Z,74.66
2022-09-03T02:48:01.189Z,74.97
2022-09-03T02:49:01.168Z,75.78
2022-09-03T02:50:01.149Z,74.80
2022-09-03T02:51:01.156Z,75.10
2022-09-03T02:52:01.133Z,74.97
2022-09-03T02:53:01.173Z,74.66
2022-09-03T02:54:01.122Z,74.05
2022-09-03T02:55:01.142Z,73.44
2022-09-03T02:56:01.103Z,74.15
2022-09-03T02:57:01.102Z,74.87
2022-09-03T02:58:02.121Z,73.94
2022-09-03T02:59:01.100Z,74.15
2022-09-03T03:00:01.097Z,74.25
2022-09-03T03:01:01.123Z,74.56
2022-09-03T03:02:01.430Z,74.66
2022-09-03T03:03:01.716Z,74.76
2022-09-03T03:04:01.072Z,74.87
2022-09-03T03:05:01.052Z,75.27
2022-09-03T03:06:01.045Z,75.41
2022-09-03T03:07:01.039Z,74.90
2022-09-03T03:08:01.065Z,75.31
2022-09-03T03:09:01.030Z,76.26
2022-09-03T03:10:01.018Z,76.57
2022-09-03T03:11:01.009Z,77.83
2022-09-03T03:12:00.994Z,77.63
2022-09-03T03:13:01.009Z,78.49
2022-09-03T03:14:01.000Z,78.55
2022-09-03T03:15:00.987Z,79.20
2022-09-03T03:16:00.977Z,79.16
2022-09-03T03:17:01.092Z,79.61
2022-09-03T03:18:01.021Z,79.10
2022-09-03T03:19:00.961Z,79.30
2022-09-03T03:20:00.951Z,79.16
2022-09-03T03:21:00.954Z,79.20
2022-09-03T03:22:00.938Z,79.61
2022-09-03T03:23:00.942Z,79.71
2022-09-03T03:24:00.921Z,79.71
2022-09-03T03:25:00.917Z,80.02
2022-09-03T03:26:00.916Z,80.02
2022-09-03T03:27:00.907Z,80.02
2022-09-03T03:28:00.921Z,79.61
2022-09-03T03:29:00.884Z,79.71
2022-09-03T03:30:00.875Z,80.16
2022-09-03T03:31:00.917Z,80.05
2022-09-03T03:32:00.887Z,80.12
2022-09-03T03:33:00.889Z,79.85
2022-09-03T03:34:00.860Z,79.50
2022-09-03T03:35:00.850Z,79.91
2022-09-03T03:36:00.831Z,79.85
2022-09-03T03:37:00.828Z,80.22
2022-09-03T03:38:00.849Z,79.96
2022-09-03T03:39:00.825Z,79.96
2022-09-03T03:40:00.878Z,80.43
2022-09-03T03:41:00.812Z,80.67
2022-09-03T03:42:00.810Z,80.88
2022-09-03T03:43:00.813Z,80.67
2022-09-03T03:44:00.786Z,80.77
2022-09-03T03:45:00.771Z,80.98
2022-09-03T03:46:00.842Z,80.83
2022-09-03T03:47:00.761Z,80.63
2022-09-03T03:48:00.772Z,80.33
2022-09-03T03:49:00.760Z,80.22
2022-09-03T03:50:00.745Z,80.16
2022-09-03T03:51:00.738Z,80.02
2022-09-03T03:52:00.726Z,79.91
2022-09-03T03:53:00.732Z,79.82
2022-09-03T03:54:04.789Z,80.02
2022-09-03T03:55:01.705Z,80.22
2022-09-03T03:56:00.688Z,81.08
2022-09-03T03:57:00.686Z,81.70
2022-09-03T03:58:00.701Z,81.59
2022-09-03T03:59:00.672Z,81.49
2022-09-03T04:00:00.668Z,81.84
2022-09-03T04:01:00.687Z,81.49
2022-09-03T04:02:00.711Z,81.08
2022-09-03T04:03:00.655Z,81.29
2022-09-03T04:04:00.693Z,81.59
2022-09-03T04:05:00.636Z,81.73
2022-09-03T04:06:00.624Z,81.43
2022-09-03T04:07:00.613Z,81.49
2022-09-03T04:08:00.632Z,80.98
2022-09-03T04:09:00.597Z,80.53
2022-09-03T04:10:00.628Z,79.71
2022-09-03T04:11:00.602Z,79.30
2022-09-03T04:12:00.581Z,79.50
2022-09-03T04:13:00.619Z,79.20
2022-09-03T04:14:00.568Z,79.50
2022-09-03T04:15:00.582Z,79.82
2022-09-03T04:16:00.565Z,79.82
2022-09-03T04:17:00.597Z,79.61
2022-09-03T04:18:00.562Z,79.30
2022-09-03T04:19:00.517Z,78.28
2022-09-03T04:20:00.520Z,77.83
2022-09-03T04:21:00.548Z,79.06
2022-09-03T04:22:00.505Z,79.20
2022-09-03T04:23:00.524Z,79.20
2022-09-03T04:24:00.489Z,80.02
2022-09-03T04:25:00.494Z,80.05
2022-09-03T04:26:00.493Z,79.96
2022-09-03T04:27:00.484Z,79.71
2022-09-03T04:28:00.506Z,79.61
2022-09-03T04:29:00.459Z,80.26
2022-09-03T04:30:00.445Z,79.75
2022-09-03T04:31:00.475Z,79.91
2022-09-03T04:32:00.443Z,79.41
2022-09-03T04:33:00.469Z,79.10
2022-09-03T04:34:00.420Z,79.71
2022-09-03T04:35:00.417Z,80.46
2022-09-03T04:36:00.409Z,80.16
2022-09-03T04:37:00.416Z,80.26
2022-09-03T04:38:00.422Z,79.75
2022-09-03T04:39:00.393Z,79.44
2022-09-03T04:40:00.505Z,79.30
2022-09-03T04:41:00.367Z,78.96
2022-09-03T04:42:00.374Z,78.65
2022-09-03T04:43:00.379Z,78.17
2022-09-03T04:44:00.369Z,77.56
2022-09-03T04:45:00.343Z,77.42
2022-09-03T04:46:00.427Z,78.24
2022-09-03T04:47:00.332Z,79.00
2022-09-03T04:48:00.329Z,79.30
2022-09-03T04:49:00.335Z,79.10
2022-09-03T04:50:00.362Z,78.75
2022-09-03T04:51:00.315Z,78.28
2022-09-03T04:52:00.314Z,77.53
2022-09-03T04:53:02.588Z,77.53
2022-09-03T04:54:01.344Z,77.01
2022-09-03T04:55:00.284Z,77.29
2022-09-03T04:56:00.292Z,77.19
2022-09-03T04:57:00.274Z,77.49
2022-09-03T04:58:00.264Z,77.90
2022-09-03T04:59:00.289Z,77.08
2022-09-03T05:00:00.257Z,76.47
2022-09-03T05:01:00.346Z,76.94
2022-09-03T05:02:00.301Z,76.23
2022-09-03T05:03:00.222Z,75.71
2022-09-03T05:04:00.240Z,75.48
2022-09-03T05:05:00.309Z,75.37
2022-09-03T05:06:00.201Z,75.37
2022-09-03T05:07:00.188Z,75.07
2022-09-03T05:08:00.228Z,74.56
2022-09-03T05:09:00.193Z,74.11
2022-09-03T05:10:00.179Z,74.32
2022-09-03T05:11:00.177Z,73.57
2022-09-03T05:12:00.146Z,73.47
2022-09-03T05:13:00.143Z,73.23
2022-09-03T05:14:00.161Z,73.33
2022-09-03T05:15:00.134Z,72.62
2022-09-03T05:16:00.235Z,72.89
2022-09-03T05:17:00.288Z,72.48
2022-09-03T05:18:00.175Z,72.08
2022-09-03T05:19:00.122Z,72.58
2022-09-03T05:20:00.117Z,71.43
2022-09-03T05:21:01.108Z,71.26
2022-09-03T05:22:00.086Z,71.36
2022-09-03T05:23:00.080Z,71.02
2022-09-03T05:24:00.093Z,71.23
2022-09-03T05:25:00.082Z,71.12
2022-09-03T05:26:00.116Z,70.82
2022-09-03T05:27:00.045Z,71.09
2022-09-03T05:28:00.036Z,70.68
2022-09-03T05:29:00.093Z,70.68
2022-09-03T05:30:00.049Z,70.38
2022-09-03T05:31:00.026Z,70.17
2022-09-03T05:32:00.120Z,70.17
2022-09-03T05:33:00.094Z,69.97
2022-09-03T05:34:00.028Z,69.53
2022-09-03T05:35:00.004Z,69.53
2022-09-03T05:35:59.993Z,68.99
2022-09-03T05:36:59.979Z,69.19
2022-09-03T05:37:59.978Z,69.29
2022-09-03T05:38:59.994Z,68.79
2022-09-03T05:40:00.021Z,69.09
2022-09-03T05:40:59.961Z,68.88
2022-09-03T05:41:59.958Z,68.79
2022-09-03T05:42:59.950Z,68.48
2022-09-03T05:43:59.937Z,68.35
2022-09-03T05:44:59.941Z,68.35
2022-09-03T05:45:59.972Z,68.35
2022-09-03T05:46:59.946Z,68.32
2022-09-03T05:47:59.945Z,67.94
2022-09-03T05:48:59.930Z,68.32
2022-09-03T05:49:59.892Z,67.60
2022-09-03T05:50:59.898Z,67.10
2022-09-03T05:51:59.863Z,67.40
2022-09-03T05:52:59.876Z,67.47
2022-09-03T05:53:59.940Z,67.27
2022-09-03T05:54:59.850Z,67.06
2022-09-03T05:55:59.847Z,66.96
2022-09-03T05:57:00.684Z,66.63
2022-09-03T05:57:59.824Z,67.27
2022-09-03T05:58:59.861Z,66.76
2022-09-03T05:59:59.828Z,67.03
2022-09-03T06:00:59.829Z,65.81
2022-09-03T06:02:00.491Z,66.02
2022-09-03T06:03:00.892Z,66.52
2022-09-03T06:03:59.806Z,66.52
2022-09-03T06:04:59.783Z,65.27
2022-09-03T06:05:59.773Z,65.17
2022-09-03T06:06:59.763Z,65.68
2022-09-03T06:07:59.755Z,66.29
2022-09-03T06:08:59.777Z,65.17
2022-09-03T06:09:59.767Z,65.48
2022-09-03T06:10:59.745Z,65.04
2022-09-03T06:12:00.119Z,65.14
2022-09-03T06:12:59.732Z,65.65
2022-09-03T06:13:59.738Z,65.34
2022-09-03T06:14:59.705Z,64.84
2022-09-03T06:15:59.735Z,64.30
2022-09-03T06:16:59.714Z,64.00
2022-09-03T06:17:59.691Z,64.30
2022-09-03T06:18:59.717Z,64.50
2022-09-03T06:19:59.682Z,64.20
2022-09-03T06:20:59.658Z,63.29
2022-09-03T06:21:59.669Z,63.76
2022-09-03T06:22:59.659Z,63.86
2022-09-03T06:24:00.294Z,63.35
2022-09-03T06:24:59.964Z,63.56
2022-09-03T06:26:04.461Z,64.47
2022-09-03T06:27:01.634Z,63.02
2022-09-03T06:27:59.828Z,63.93
2022-09-03T06:28:59.633Z,63.63
2022-09-03T06:29:59.626Z,63.53
2022-09-03T06:30:59.599Z,62.92
2022-09-03T06:31:59.663Z,62.72
2022-09-03T06:32:59.586Z,62.82
2022-09-03T06:34:03.826Z,63.53
2022-09-03T06:35:00.584Z,62.52
2022-09-03T06:35:59.557Z,63.90
2022-09-03T06:36:59.575Z,62.59
2022-09-03T06:37:59.561Z,62.69
2022-09-03T06:38:59.596Z,61.37
2022-09-03T06:39:59.596Z,62.29
2022-09-03T06:40:59.534Z,61.75
2022-09-03T06:41:59.535Z,61.65
2022-09-03T06:42:59.521Z,62.35
2022-09-03T06:43:59.533Z,61.14
2022-09-03T06:44:59.514Z,61.44
2022-09-03T06:45:59.535Z,61.72
2022-09-03T06:46:59.494Z,61.62
2022-09-03T06:47:59.484Z,60.91
2022-09-03T06:48:59.503Z,60.30
2022-09-03T06:49:59.475Z,60.88
2022-09-03T06:50:59.478Z,60.88
2022-09-03T06:51:59.470Z,60.38
2022-09-03T06:52:59.447Z,59.77
2022-09-03T06:53:59.466Z,59.64
2022-09-03T06:54:59.453Z,59.56
2022-09-03T06:55:59.442Z,59.34
2022-09-03T06:57:00.249Z,59.94
2022-09-03T06:57:59.419Z,59.84
2022-09-03T06:58:59.428Z,60.05
2022-09-03T06:59:59.419Z,58.50
2022-09-03T07:00:59.447Z,57.59
2022-09-03T07:01:59.586Z,58.70
2022-09-03T07:02:59.382Z,57.89
2022-09-03T07:03:59.403Z,58.40
2022-09-03T07:04:59.371Z,58.20
2022-09-03T07:05:59.367Z,57.59
2022-09-03T07:06:59.369Z,58.50
2022-09-03T07:07:59.338Z,57.79
2022-09-03T07:08:59.357Z,57.67
2022-09-03T07:09:59.344Z,58.00
2022-09-03T07:10:59.329Z,57.76
2022-09-03T07:11:59.328Z,58.17
2022-09-03T07:12:59.315Z,58.07
2022-09-03T07:13:59.332Z,58.27
2022-09-03T07:14:59.308Z,57.76
2022-09-03T07:15:59.328Z,57.26
2022-09-03T07:16:59.302Z,57.64
2022-09-03T07:17:59.289Z,58.34
2022-09-03T07:18:59.287Z,57.31
2022-09-03T07:19:59.272Z,56.81
2022-09-03T07:20:59.259Z,56.10
2022-09-03T07:21:59.249Z,55.79
2022-09-03T07:22:59.240Z,56.48
2022-09-03T07:23:59.253Z,56.57
2022-09-03T07:24:59.230Z,56.07
2022-09-03T07:25:59.232Z,55.36
2022-09-03T07:26:59.222Z,56.15
2022-09-03T07:27:59.208Z,55.94
2022-09-03T07:28:59.222Z,55.36
2022-09-03T07:29:59.189Z,55.87
2022-09-03T07:30:59.195Z,55.74
2022-09-03T07:31:59.245Z,55.74
2022-09-03T07:32:59.164Z,55.14
2022-09-03T07:33:59.184Z,55.11
2022-09-03T07:35:00.181Z,54.61
2022-09-03T07:35:59.148Z,54.28
2022-09-03T07:36:59.153Z,54.35
2022-09-03T07:37:59.150Z,54.58
2022-09-03T07:38:59.167Z,53.47
2022-09-03T07:39:59.194Z,54.08
2022-09-03T07:40:59.119Z,54.38
2022-09-03T07:41:59.113Z,53.67
2022-09-03T07:42:59.107Z,54.58
2022-09-03T07:43:59.125Z,53.65
2022-09-03T07:44:59.099Z,53.88
2022-09-03T07:45:59.096Z,54.41
2022-09-03T07:46:59.148Z,54.58
2022-09-03T07:47:59.081Z,54.18
2022-09-03T07:48:59.086Z,54.58
2022-09-03T07:49:59.072Z,54.48
2022-09-03T07:50:59.052Z,54.18
2022-09-03T07:51:59.048Z,54.81
2022-09-03T07:52:59.042Z,54.41
2022-09-03T07:53:59.068Z,54.38
2022-09-03T07:54:59.125Z,54.55
2022-09-03T07:55:59.022Z,54.35
2022-09-03T07:56:59.035Z,53.25
2022-09-03T07:57:59.003Z,53.55
2022-09-03T07:58:59.013Z,53.22
2022-09-03T07:59:59.012Z,53.32
2022-09-03T08:00:59.007Z,53.42
2022-09-03T08:01:58.975Z,52.19
2022-09-03T08:02:58.962Z,51.89
2022-09-03T08:03:59.034Z,52.29
2022-09-03T08:04:59.001Z,51.99
2022-09-03T08:05:58.955Z,51.97
2022-09-03T08:06:58.952Z,52.67
2022-09-03T08:07:58.941Z,51.74
2022-09-03T08:09:04.203Z,51.14
2022-09-03T08:09:59.911Z,50.21
2022-09-03T08:10:58.910Z,50.21
2022-09-03T08:11:58.913Z,50.31
2022-09-03T08:12:58.901Z,50.38
2022-09-03T08:13:58.905Z,49.88
2022-09-03T08:14:58.879Z,49.96
2022-09-03T08:15:58.939Z,49.86
2022-09-03T08:16:58.872Z,48.83
2022-09-03T08:18:03.563Z,47.43
2022-09-03T08:18:59.868Z,47.63
2022-09-03T08:19:58.864Z,48.03
2022-09-03T08:20:58.840Z,48.81
2022-09-03T08:21:58.851Z,48.51
2022-09-03T08:22:58.813Z,47.91
2022-09-03T08:23:58.871Z,48.86
2022-09-03T08:24:58.810Z,49.38
2022-09-03T08:25:58.823Z,49.16
2022-09-03T08:26:58.795Z,48.86
2022-09-03T08:27:58.794Z,49.84
2022-09-03T08:28:58.805Z,47.78
2022-09-03T08:29:58.841Z,48.19
2022-09-03T08:30:58.816Z,47.08
2022-09-03T08:31:59.725Z,47.69
2022-09-03T08:32:58.756Z,48.01
2022-09-03T08:33:58.751Z,48.43
2022-09-03T08:34:58.747Z,48.31
2022-09-03T08:35:58.731Z,49.11
2022-09-03T08:36:58.729Z,48.81
2022-09-03T08:37:58.756Z,48.79
2022-09-03T08:38:58.726Z,48.66
2022-09-03T08:39:58.751Z,47.86
2022-09-03T08:40:58.690Z,46.86
2022-09-03T08:41:58.690Z,47.26
2022-09-03T08:42:58.688Z,46.38
2022-09-03T08:43:58.693Z,47.58
2022-09-03T08:44:58.702Z,47.19
2022-09-03T08:45:58.688Z,47.19
2022-09-03T08:46:58.683Z,48.26
2022-09-03T08:47:58.636Z,47.16
2022-09-03T08:48:58.646Z,47.86
2022-09-03T08:49:58.617Z,47.04
2022-09-03T08:50:58.613Z,46.44
2022-09-03T08:51:58.604Z,47.34
2022-09-03T08:52:58.595Z,46.51
2022-09-03T08:53:58.603Z,45.31
2022-09-03T08:54:58.577Z,45.89
2022-09-03T08:55:59.583Z,44.89
2022-09-03T08:56:58.632Z,45.27
2022-09-03T08:57:58.569Z,45.05
2022-09-03T08:58:58.574Z,44.35
2022-09-03T08:59:58.550Z,45.45
2022-09-03T09:00:58.540Z,44.93
2022-09-03T09:01:58.644Z,44.83
2022-09-03T09:02:58.557Z,43.45
2022-09-03T09:03:58.544Z,44.95
2022-09-03T09:04:58.543Z,46.57
2022-09-03T09:05:58.517Z,46.42
2022-09-03T09:06:58.506Z,46.84
2022-09-03T09:07:58.510Z,47.58
2022-09-03T09:08:58.505Z,47.26
2022-09-03T09:09:58.479Z,46.26
2022-09-03T09:10:58.476Z,46.84
2022-09-03T09:11:58.467Z,47.26
2022-09-03T09:12:58.494Z,47.26
2022-09-03T09:13:58.471Z,48.04
2022-09-03T09:14:58.454Z,46.42
2022-09-03T09:15:58.476Z,47.09
2022-09-03T09:16:58.426Z,44.65
2022-09-03T09:17:58.440Z,44.83
2022-09-03T09:18:58.442Z,44.89
2022-09-03T09:19:58.394Z,47.04
2022-09-03T09:20:58.402Z,48.02
2022-09-03T09:21:58.393Z,46.77
2022-09-03T09:22:58.392Z,44.83
2022-09-03T09:23:58.398Z,44.93
2022-09-03T09:24:58.367Z,44.81
2022-09-03T09:25:58.377Z,44.79
2022-09-03T09:26:58.371Z,43.77
2022-09-03T09:27:58.355Z,44.29
2022-09-03T09:28:58.359Z,43.65
2022-09-03T09:29:58.337Z,45.33
2022-09-03T09:30:58.428Z,43.69
2022-09-03T09:31:58.320Z,43.55
2022-09-03T09:32:58.324Z,42.81
2022-09-03T09:34:00.438Z,42.27
2022-09-03T09:34:58.319Z,39.92
2022-09-03T09:35:58.290Z,39.29
2022-09-03T09:36:58.286Z,39.37
2022-09-03T09:37:58.309Z,38.88
2022-09-03T09:38:58.327Z,38.22
2022-09-03T09:39:58.344Z,38.48
2022-09-03T09:40:58.272Z,38.36
2022-09-03T09:41:58.258Z,38.00
2022-09-03T09:42:58.311Z,39.43
2022-09-03T09:43:58.266Z,39.15
2022-09-03T09:44:58.236Z,38.92
2022-09-03T09:45:58.307Z,38.28
2022-09-03T09:46:58.272Z,38.30
2022-09-03T09:47:58.217Z,39.28
2022-09-03T09:48:58.260Z,37.87
2022-09-03T09:49:58.212Z,36.84
2022-09-03T09:50:58.221Z,36.96
2022-09-03T09:51:58.183Z,37.53
2022-09-03T09:52:59.219Z,37.85
2022-09-03T09:53:59.192Z,37.93
2022-09-03T09:54:58.169Z,37.81
2022-09-03T09:55:58.208Z,37.00
2022-09-03T09:56:58.166Z,40.05
2022-09-03T09:57:58.156Z,41.38
2022-09-03T09:58:58.164Z,41.04
2022-09-03T09:59:58.155Z,38.71
2022-09-03T10:00:58.126Z,40.58
2022-09-03T10:01:58.193Z,39.73
2022-09-03T10:02:58.149Z,37.87
2022-09-03T10:03:58.143Z,35.63
2022-09-03T10:04:58.103Z,35.60
2022-09-03T10:05:58.100Z,34.39
2022-09-03T10:06:58.093Z,36.41
2022-09-03T10:07:58.088Z,36.31
2022-09-03T10:08:58.088Z,36.44
2022-09-03T10:09:58.082Z,36.46
2022-09-03T10:10:58.063Z,37.17
2022-09-03T10:11:58.046Z,37.04
2022-09-03T10:12:58.055Z,36.79
2022-09-03T10:13:58.057Z,35.58
2022-09-03T10:14:58.024Z,35.35
2022-09-03T10:15:58.074Z,33.77
2022-09-03T10:16:58.030Z,35.33
2022-09-03T10:17:58.007Z,32.93
2022-09-03T10:18:58.007Z,32.24
2022-09-03T10:19:57.989Z,32.85
2022-09-03T10:20:57.990Z,34.05
2022-09-03T10:21:57.987Z,34.08
2022-09-03T10:22:57.975Z,34.20
2022-09-03T10:23:57.985Z,34.12
2022-09-03T10:24:57.946Z,34.44
2022-09-03T10:25:57.966Z,34.05
2022-09-03T10:26:57.947Z,34.48
2022-09-03T10:27:59.914Z,33.69
2022-09-03T10:28:57.963Z,35.02
2022-09-03T10:29:57.932Z,34.50
2022-09-03T10:30:57.930Z,35.78
2022-09-03T10:31:57.906Z,35.44
2022-09-03T10:32:57.921Z,37.07
2022-09-03T10:33:58.925Z,37.09
2022-09-03T10:34:57.889Z,38.28
2022-09-03T10:35:57.883Z,36.72
2022-09-03T10:36:57.871Z,34.08
2022-09-03T10:37:57.881Z,34.17
2022-09-03T10:38:57.895Z,36.36
2022-09-03T10:39:57.869Z,39.11
2022-09-03T10:40:57.846Z,37.88
2022-09-03T10:41:57.850Z,36.36
2022-09-03T10:42:57.831Z,36.90
2022-09-03T10:43:57.823Z,36.18
2022-09-03T10:44:57.833Z,35.38
2022-09-03T10:45:57.838Z,34.50
2022-09-03T10:46:57.811Z,34.94
2022-09-03T10:47:58.701Z,34.05
2022-09-03T10:48:57.783Z,34.03
2022-09-03T10:49:57.796Z,34.17
2022-09-03T10:50:57.774Z,34.79
2022-09-03T10:51:58.675Z,33.87
2022-09-03T10:52:57.762Z,34.06
2022-09-03T10:53:57.801Z,34.38
2022-09-03T10:54:57.794Z,35.72
2022-09-03T10:55:58.656Z,35.63
2022-09-03T10:56:57.794Z,36.68
2022-09-03T10:57:57.722Z,37.26
2022-09-03T10:58:57.729Z,34.61
2022-09-03T10:59:57.749Z,35.04
2022-09-03T11:00:57.706Z,34.88
2022-09-03T11:01:57.699Z,34.06
2022-09-03T11:02:57.755Z,34.25
2022-09-03T11:03:57.681Z,33.46
2022-09-03T11:04:57.692Z,34.79
2022-09-03T11:05:57.677Z,35.00
2022-09-03T11:06:57.664Z,35.22
2022-09-03T11:07:57.663Z,36.41
2022-09-03T11:08:57.652Z,36.24
2022-09-03T11:09:57.662Z,36.48
2022-09-03T11:10:57.630Z,37.87
2022-09-03T11:11:57.630Z,37.49
2022-09-03T11:12:57.630Z,38.88
2022-09-03T11:13:57.625Z,39.61
2022-09-03T11:14:57.681Z,38.71
2022-09-03T11:15:57.644Z,38.42
2022-09-03T11:16:57.647Z,38.52
2022-09-03T11:17:57.592Z,41.58
2022-09-03T11:18:58.516Z,41.69
2022-09-03T11:19:57.607Z,42.55
2022-09-03T11:20:57.782Z,42.63
2022-09-03T11:21:57.628Z,41.31
2022-09-03T11:22:58.177Z,42.95
2022-09-03T11:23:57.654Z,42.33
2022-09-03T11:24:57.534Z,43.35
2022-09-03T11:25:57.530Z,43.25
2022-09-03T11:26:57.571Z,43.73
2022-09-03T11:27:57.523Z,41.00
2022-09-03T11:28:57.551Z,40.50
2022-09-03T11:29:57.524Z,41.39
2022-09-03T11:30:57.590Z,41.38
2022-09-03T11:31:57.505Z,40.88
2022-09-03T11:32:57.499Z,40.76
2022-09-03T11:33:57.595Z,40.46
2022-09-03T11:34:58.663Z,40.86
2022-09-03T11:35:57.475Z,39.67
2022-09-03T11:36:57.623Z,40.76
2022-09-03T11:37:57.472Z,39.53
2022-09-03T11:38:57.463Z,40.03
2022-09-03T11:39:57.465Z,40.01
2022-09-03T11:40:57.448Z,39.92
2022-09-03T11:41:57.521Z,39.45
2022-09-03T11:42:57.427Z,40.82
2022-09-03T11:44:00.109Z,39.23
2022-09-03T11:44:59.426Z,39.45
2022-09-03T11:45:57.449Z,40.86
2022-09-03T11:46:57.398Z,41.08
2022-09-03T11:47:57.400Z,40.16
2022-09-03T11:48:57.410Z,40.58
2022-09-03T11:49:57.386Z,40.58
2022-09-03T11:50:57.378Z,40.76
2022-09-03T11:51:57.370Z,40.78
2022-09-03T11:52:57.420Z,41.69
2022-09-03T11:53:57.375Z,40.98
2022-09-03T11:54:57.347Z,40.58
2022-09-03T11:55:57.356Z,40.36
2022-09-03T11:56:57.343Z,40.06
2022-09-03T11:57:57.323Z,39.35
2022-09-03T11:58:57.340Z,39.54
2022-09-03T11:59:57.348Z,40.62
2022-09-03T12:00:57.317Z,39.92
2022-09-03T12:01:57.300Z,41.99
2022-09-03T12:02:59.077Z,43.15
2022-09-03T12:03:58.299Z,43.55
2022-09-03T12:04:57.336Z,43.75
2022-09-03T12:05:57.285Z,43.03
2022-09-03T12:06:57.275Z,43.21
2022-09-03T12:07:57.312Z,43.75
2022-09-03T12:08:57.268Z,43.37
2022-09-03T12:09:58.166Z,43.69
2022-09-03T12:10:57.249Z,44.63
2022-09-03T12:11:57.242Z,44.53
2022-09-03T12:12:57.256Z,45.63
2022-09-03T12:13:57.234Z,45.31
2022-09-03T12:14:57.251Z,44.19
2022-09-03T12:15:57.245Z,43.89
2022-09-03T12:16:57.203Z,44.27
2022-09-03T12:17:57.202Z,43.75
2022-09-03T12:18:57.201Z,43.55
2022-09-03T12:19:57.167Z,43.82
2022-09-03T12:20:57.174Z,43.45
2022-09-03T12:21:57.183Z,43.97
2022-09-03T12:22:57.208Z,43.89
2022-09-03T12:23:58.289Z,45.01
2022-09-03T12:24:57.174Z,44.73
2022-09-03T12:25:57.137Z,44.73
2022-09-03T12:26:57.128Z,44.91
2022-09-03T12:27:57.129Z,44.11
2022-09-03T12:28:57.197Z,45.43
2022-09-03T12:29:57.105Z,44.43
2022-09-03T12:30:57.186Z,45.63
2022-09-03T12:31:57.083Z,44.33
2022-09-03T12:32:57.094Z,44.43
2022-09-03T12:33:57.103Z,44.93
2022-09-03T12:34:57.074Z,45.23
2022-09-03T12:35:58.893Z,43.83
2022-09-03T12:36:59.692Z,44.33
2022-09-03T12:38:08.831Z,45.05
2022-09-03T12:39:11.358Z,45.05
2022-09-03T12:40:07.998Z,44.45
2022-09-03T12:41:28.842Z,45.25
2022-09-03T12:41:59.027Z,44.33
2022-09-03T12:43:36.995Z,45.15
2022-09-03T12:43:59.054Z,45.13
2022-09-03T12:44:57.020Z,45.13
2022-09-03T12:46:12.487Z,45.05
2022-09-03T12:47:59.047Z,44.85
2022-09-03T12:49:58.967Z,44.85
2022-09-03T12:50:57.984Z,44.65
2022-09-03T12:52:00.687Z,45.03
2022-09-03T12:52:57.972Z,44.21
2022-09-03T12:53:56.967Z,44.05